sensor_id;sensor_type;location;lat;lon;timestamp;P1;durP1;ratioP1;P2;durP2;ratioP2
47513;SDS011;33951;51.988;5.910;2023-03-14T00:00:26;13.85;;;3.38;;
47513;SDS011;33951;51.988;5.910;2023-03-14T00:02:55;12.93;;;4.15;;
47513;SDS011;33951;51.988;5.910;2023-03-14T00:05:20;10.05;;;3.53;;
47513;SDS011;33951;51.988;5.910;2023-03-14T00:07:49;10.98;;;3.10;;
47513;SDS011;33951;51.988;5.910;2023-03-14T00:10:15;10.82;;;3.28;;
47513;SDS011;33951;51.988;5.910;2023-03-14T00:12:45;6.68;;;2.97;;
47513;SDS011;33951;51.988;5.910;2023-03-14T00:15:13;10.43;;;3.53;;
47513;SDS011;33951;51.988;5.910;2023-03-14T00:17:44;9.60;;;2.80;;
47513;SDS011;33951;51.988;5.910;2023-03-14T00:20:12;10.60;;;3.45;;
47513;SDS011;33951;51.988;5.910;2023-03-14T00:22:40;10.55;;;3.80;;
47513;SDS011;33951;51.988;5.910;2023-03-14T00:25:12;7.97;;;3.08;;
47513;SDS011;33951;51.988;5.910;2023-03-14T00:34:53;11.50;;;2.70;;
47513;SDS011;33951;51.988;5.910;2023-03-14T00:44:23;6.95;;;2.13;;
47513;SDS011;33951;51.988;5.910;2023-03-14T00:50:43;11.32;;;2.28;;
47513;SDS011;33951;51.988;5.910;2023-03-14T00:53:34;8.60;;;1.90;;
47513;SDS011;33951;51.988;5.910;2023-03-14T00:56:08;6.70;;;1.90;;
47513;SDS011;33951;51.988;5.910;2023-03-14T00:58:43;8.90;;;2.25;;
47513;SDS011;33951;51.988;5.910;2023-03-14T05:09:42;12.68;;;2.50;;
47513;SDS011;33951;51.988;5.910;2023-03-14T05:12:46;10.85;;;3.30;;
47513;SDS011;33951;51.988;5.910;2023-03-14T05:17:40;13.35;;;3.05;;
47513;SDS011;33951;51.988;5.910;2023-03-14T05:20:05;11.32;;;2.10;;
47513;SDS011;33951;51.988;5.910;2023-03-14T05:22:35;11.88;;;2.35;;
47513;SDS011;33951;51.988;5.910;2023-03-14T05:25:00;11.05;;;2.03;;
47513;SDS011;33951;51.988;5.910;2023-03-14T05:27:26;7.22;;;2.03;;
47513;SDS011;33951;51.988;5.910;2023-03-14T05:29:51;9.63;;;2.65;;
47513;SDS011;33951;51.988;5.910;2023-03-14T05:32:17;7.60;;;1.75;;
47513;SDS011;33951;51.988;5.910;2023-03-14T05:34:43;7.35;;;2.03;;
47513;SDS011;33951;51.988;5.910;2023-03-14T05:37:08;6.82;;;2.00;;
47513;SDS011;33951;51.988;5.910;2023-03-14T05:39:34;12.82;;;2.97;;
47513;SDS011;33951;51.988;5.910;2023-03-14T05:41:59;7.32;;;2.22;;
47513;SDS011;33951;51.988;5.910;2023-03-14T05:44:25;5.53;;;2.15;;
47513;SDS011;33951;51.988;5.910;2023-03-14T05:46:51;13.63;;;2.45;;
47513;SDS011;33951;51.988;5.910;2023-03-14T05:49:16;8.25;;;2.25;;
47513;SDS011;33951;51.988;5.910;2023-03-14T05:51:42;6.45;;;2.38;;
47513;SDS011;33951;51.988;5.910;2023-03-14T05:54:07;8.35;;;3.33;;
47513;SDS011;33951;51.988;5.910;2023-03-14T05:56:35;7.40;;;2.35;;
47513;SDS011;33951;51.988;5.910;2023-03-14T05:59:01;6.55;;;2.08;;
47513;SDS011;33951;51.988;5.910;2023-03-14T06:01:28;7.55;;;2.55;;
47513;SDS011;33951;51.988;5.910;2023-03-14T06:03:54;7.68;;;2.38;;
47513;SDS011;33951;51.988;5.910;2023-03-14T06:06:20;9.57;;;2.60;;
47513;SDS011;33951;51.988;5.910;2023-03-14T06:08:49;9.60;;;2.33;;
47513;SDS011;33951;51.988;5.910;2023-03-14T06:11:15;7.72;;;2.38;;
47513;SDS011;33951;51.988;5.910;2023-03-14T06:13:40;10.15;;;2.10;;
47513;SDS011;33951;51.988;5.910;2023-03-14T06:16:06;7.72;;;2.90;;
47513;SDS011;33951;51.988;5.910;2023-03-14T06:18:32;11.70;;;3.40;;
47513;SDS011;33951;51.988;5.910;2023-03-14T06:21:00;10.68;;;3.25;;
47513;SDS011;33951;51.988;5.910;2023-03-14T06:23:26;11.13;;;3.47;;
47513;SDS011;33951;51.988;5.910;2023-03-14T06:25:52;8.80;;;3.10;;
47513;SDS011;33951;51.988;5.910;2023-03-14T06:28:17;12.98;;;3.05;;
47513;SDS011;33951;51.988;5.910;2023-03-14T06:30:43;5.88;;;3.03;;
47513;SDS011;33951;51.988;5.910;2023-03-14T06:33:08;9.45;;;3.83;;
47513;SDS011;33951;51.988;5.910;2023-03-14T06:35:34;14.70;;;6.78;;
47513;SDS011;33951;51.988;5.910;2023-03-14T06:38:00;12.30;;;3.72;;
47513;SDS011;33951;51.988;5.910;2023-03-14T06:40:26;13.07;;;4.90;;
47513;SDS011;33951;51.988;5.910;2023-03-14T06:42:52;11.00;;;4.35;;
47513;SDS011;33951;51.988;5.910;2023-03-14T06:45:18;14.75;;;5.18;;
47513;SDS011;33951;51.988;5.910;2023-03-14T06:47:43;7.75;;;4.05;;
47513;SDS011;33951;51.988;5.910;2023-03-14T06:50:09;9.38;;;4.68;;
47513;SDS011;33951;51.988;5.910;2023-03-14T06:52:35;9.57;;;4.40;;
47513;SDS011;33951;51.988;5.910;2023-03-14T06:55:02;13.00;;;4.85;;
47513;SDS011;33951;51.988;5.910;2023-03-14T06:57:28;12.15;;;5.40;;
47513;SDS011;33951;51.988;5.910;2023-03-14T06:59:54;11.65;;;6.20;;
47513;SDS011;33951;51.988;5.910;2023-03-14T07:02:19;10.20;;;5.00;;
47513;SDS011;33951;51.988;5.910;2023-03-14T07:04:46;14.43;;;5.85;;
47513;SDS011;33951;51.988;5.910;2023-03-14T07:07:12;11.25;;;5.63;;
47513;SDS011;33951;51.988;5.910;2023-03-14T07:09:38;10.20;;;5.07;;
47513;SDS011;33951;51.988;5.910;2023-03-14T07:12:03;8.57;;;5.35;;
47513;SDS011;33951;51.988;5.910;2023-03-14T07:14:30;12.88;;;6.03;;
47513;SDS011;33951;51.988;5.910;2023-03-14T07:16:56;9.70;;;5.10;;
47513;SDS011;33951;51.988;5.910;2023-03-14T07:19:21;12.77;;;6.28;;
47513;SDS011;33951;51.988;5.910;2023-03-14T07:21:52;11.10;;;6.20;;
47513;SDS011;33951;51.988;5.910;2023-03-14T07:24:18;12.70;;;6.78;;
47513;SDS011;33951;51.988;5.910;2023-03-14T07:26:44;13.48;;;5.97;;
47513;SDS011;33951;51.988;5.910;2023-03-14T07:29:09;15.07;;;7.38;;
47513;SDS011;33951;51.988;5.910;2023-03-14T07:31:35;10.23;;;4.25;;
47513;SDS011;33951;51.988;5.910;2023-03-14T07:34:01;6.32;;;3.53;;
47513;SDS011;33951;51.988;5.910;2023-03-14T07:36:26;8.02;;;4.35;;
47513;SDS011;33951;51.988;5.910;2023-03-14T07:38:52;8.00;;;4.05;;
47513;SDS011;33951;51.988;5.910;2023-03-14T07:41:21;7.07;;;4.38;;
47513;SDS011;33951;51.988;5.910;2023-03-14T07:43:47;6.47;;;3.05;;
47513;SDS011;33951;51.988;5.910;2023-03-14T07:46:13;5.90;;;2.90;;
47513;SDS011;33951;51.988;5.910;2023-03-14T07:48:40;5.30;;;2.50;;
47513;SDS011;33951;51.988;5.910;2023-03-14T07:51:06;5.65;;;2.53;;
47513;SDS011;33951;51.988;5.910;2023-03-14T07:53:31;5.65;;;3.03;;
47513;SDS011;33951;51.988;5.910;2023-03-14T07:55:57;6.93;;;2.15;;
47513;SDS011;33951;51.988;5.910;2023-03-14T07:58:23;4.18;;;2.00;;
47513;SDS011;33951;51.988;5.910;2023-03-14T08:00:49;3.45;;;1.70;;
47513;SDS011;33951;51.988;5.910;2023-03-14T08:03:15;4.75;;;1.80;;
47513;SDS011;33951;51.988;5.910;2023-03-14T08:05:42;3.63;;;1.73;;
47513;SDS011;33951;51.988;5.910;2023-03-14T08:08:08;5.10;;;2.22;;
47513;SDS011;33951;51.988;5.910;2023-03-14T08:10:34;4.32;;;1.77;;
47513;SDS011;33951;51.988;5.910;2023-03-14T08:13:00;2.63;;;1.90;;
47513;SDS011;33951;51.988;5.910;2023-03-14T08:15:26;4.78;;;1.60;;
47513;SDS011;33951;51.988;5.910;2023-03-14T08:17:53;2.85;;;1.90;;
47513;SDS011;33951;51.988;5.910;2023-03-14T08:20:20;3.80;;;1.95;;
47513;SDS011;33951;51.988;5.910;2023-03-14T08:22:47;7.10;;;2.10;;
47513;SDS011;33951;51.988;5.910;2023-03-14T08:25:16;2.65;;;1.77;;
47513;SDS011;33951;51.988;5.910;2023-03-14T08:27:42;4.03;;;1.77;;
47513;SDS011;33951;51.988;5.910;2023-03-14T08:30:09;2.92;;;1.88;;
47513;SDS011;33951;51.988;5.910;2023-03-14T08:32:36;3.65;;;2.13;;
47513;SDS011;33951;51.988;5.910;2023-03-14T08:35:03;3.97;;;2.33;;
47513;SDS011;33951;51.988;5.910;2023-03-14T08:37:31;4.38;;;3.40;;
47513;SDS011;33951;51.988;5.910;2023-03-14T08:39:57;9.77;;;2.78;;
47513;SDS011;33951;51.988;5.910;2023-03-14T08:42:23;3.13;;;1.75;;
47513;SDS011;33951;51.988;5.910;2023-03-14T08:44:49;6.57;;;1.88;;
47513;SDS011;33951;51.988;5.910;2023-03-14T08:47:16;5.35;;;1.60;;
47513;SDS011;33951;51.988;5.910;2023-03-14T08:49:41;10.10;;;1.67;;
47513;SDS011;33951;51.988;5.910;2023-03-14T08:52:07;3.17;;;1.50;;
47513;SDS011;33951;51.988;5.910;2023-03-14T08:54:36;10.80;;;1.88;;
47513;SDS011;33951;51.988;5.910;2023-03-14T08:57:02;5.63;;;1.50;;
47513;SDS011;33951;51.988;5.910;2023-03-14T08:59:27;4.75;;;1.50;;
47513;SDS011;33951;51.988;5.910;2023-03-14T09:01:53;5.53;;;1.60;;
47513;SDS011;33951;51.988;5.910;2023-03-14T09:04:19;6.88;;;1.98;;
47513;SDS011;33951;51.988;5.910;2023-03-14T09:06:45;14.18;;;1.60;;
47513;SDS011;33951;51.988;5.910;2023-03-14T09:09:13;5.57;;;1.90;;
47513;SDS011;33951;51.988;5.910;2023-03-14T09:11:39;5.13;;;1.80;;
47513;SDS011;33951;51.988;5.910;2023-03-14T09:14:05;9.60;;;1.98;;
47513;SDS011;33951;51.988;5.910;2023-03-14T09:16:32;13.77;;;4.63;;
47513;SDS011;33951;51.988;5.910;2023-03-14T09:18:58;10.25;;;2.17;;
47513;SDS011;33951;51.988;5.910;2023-03-14T09:21:25;6.22;;;1.30;;
47513;SDS011;33951;51.988;5.910;2023-03-14T09:23:51;3.63;;;1.20;;
47513;SDS011;33951;51.988;5.910;2023-03-14T09:26:16;5.75;;;1.10;;
47513;SDS011;33951;51.988;5.910;2023-03-14T09:28:42;4.45;;;0.93;;
47513;SDS011;33951;51.988;5.910;2023-03-14T09:31:08;5.97;;;1.02;;
47513;SDS011;33951;51.988;5.910;2023-03-14T09:33:37;5.57;;;1.25;;
47513;SDS011;33951;51.988;5.910;2023-03-14T09:36:03;5.47;;;0.90;;
47513;SDS011;33951;51.988;5.910;2023-03-14T09:38:30;5.10;;;1.42;;
47513;SDS011;33951;51.988;5.910;2023-03-14T09:40:59;3.55;;;0.88;;
47513;SDS011;33951;51.988;5.910;2023-03-14T09:45:54;2.45;;;0.80;;
47513;SDS011;33951;51.988;5.910;2023-03-14T09:48:22;4.63;;;1.52;;
47513;SDS011;33951;51.988;5.910;2023-03-14T09:50:55;4.85;;;1.10;;
47513;SDS011;33951;51.988;5.910;2023-03-14T09:55:51;3.85;;;1.02;;
47513;SDS011;33951;51.988;5.910;2023-03-14T09:58:22;4.30;;;1.25;;
47513;SDS011;33951;51.988;5.910;2023-03-14T10:00:49;4.55;;;1.20;;
47513;SDS011;33951;51.988;5.910;2023-03-14T10:03:21;5.90;;;1.70;;
47513;SDS011;33951;51.988;5.910;2023-03-14T10:05:51;4.32;;;1.42;;
47513;SDS011;33951;51.988;5.910;2023-03-14T10:08:21;7.80;;;1.73;;
47513;SDS011;33951;51.988;5.910;2023-03-14T10:10:46;9.52;;;1.75;;
47513;SDS011;33951;51.988;5.910;2023-03-14T10:13:21;10.73;;;1.58;;
47513;SDS011;33951;51.988;5.910;2023-03-14T10:18:19;10.23;;;1.65;;
47513;SDS011;33951;51.988;5.910;2023-03-14T10:20:47;11.18;;;2.35;;
47513;SDS011;33951;51.988;5.910;2023-03-14T10:25:43;14.80;;;3.33;;
47513;SDS011;33951;51.988;5.910;2023-03-14T10:28:27;14.75;;;2.53;;
47513;SDS011;33951;51.988;5.910;2023-03-14T10:31:12;14.52;;;2.90;;
47513;SDS011;33951;51.988;5.910;2023-03-14T10:33:57;16.65;;;4.55;;
47513;SDS011;33951;51.988;5.910;2023-03-14T10:36:30;11.68;;;2.88;;
47513;SDS011;33951;51.988;5.910;2023-03-14T10:39:22;20.05;;;2.95;;
47513;SDS011;33951;51.988;5.910;2023-03-14T10:41:52;21.95;;;3.53;;
47513;SDS011;33951;51.988;5.910;2023-03-14T10:44:24;15.60;;;3.05;;
47513;SDS011;33951;51.988;5.910;2023-03-14T10:46:58;16.38;;;4.00;;
47513;SDS011;33951;51.988;5.910;2023-03-14T10:49:30;22.98;;;4.38;;
47513;SDS011;33951;51.988;5.910;2023-03-14T10:52:40;22.00;;;3.90;;
47513;SDS011;33951;51.988;5.910;2023-03-14T10:54:49;14.73;;;3.15;;
47513;SDS011;33951;51.988;5.910;2023-03-14T10:57:21;17.95;;;3.30;;
47513;SDS011;33951;51.988;5.910;2023-03-14T10:59:47;21.67;;;3.58;;
47513;SDS011;33951;51.988;5.910;2023-03-14T11:05:23;21.40;;;4.28;;
47513;SDS011;33951;51.988;5.910;2023-03-14T11:07:45;22.20;;;5.20;;
47513;SDS011;33951;51.988;5.910;2023-03-14T11:28:36;20.65;;;3.90;;
47513;SDS011;33951;51.988;5.910;2023-03-14T12:00:19;18.30;;;4.07;;
47513;SDS011;33951;51.988;5.910;2023-03-14T12:03:43;17.88;;;4.05;;
47513;SDS011;33951;51.988;5.910;2023-03-14T12:10:25;26.33;;;4.65;;
47513;SDS011;33951;51.988;5.910;2023-03-14T12:13:19;31.38;;;4.82;;
47513;SDS011;33951;51.988;5.910;2023-03-14T12:15:47;24.33;;;4.07;;
47513;SDS011;33951;51.988;5.910;2023-03-14T12:18:20;18.20;;;3.75;;
47513;SDS011;33951;51.988;5.910;2023-03-14T12:20:59;17.20;;;3.55;;
47513;SDS011;33951;51.988;5.910;2023-03-14T12:23:26;17.27;;;3.58;;
47513;SDS011;33951;51.988;5.910;2023-03-14T12:26:43;17.63;;;4.25;;
47513;SDS011;33951;51.988;5.910;2023-03-14T12:34:03;8.77;;;2.30;;
47513;SDS011;33951;51.988;5.910;2023-03-14T12:46:59;7.85;;;2.58;;
47513;SDS011;33951;51.988;5.910;2023-03-14T12:49:39;14.68;;;2.97;;
47513;SDS011;33951;51.988;5.910;2023-03-14T12:52:10;9.82;;;2.38;;
47513;SDS011;33951;51.988;5.910;2023-03-14T12:55:04;10.30;;;2.22;;
47513;SDS011;33951;51.988;5.910;2023-03-14T12:57:47;10.90;;;3.08;;
47513;SDS011;33951;51.988;5.910;2023-03-14T13:00:32;21.45;;;3.15;;
47513;SDS011;33951;51.988;5.910;2023-03-14T13:03:00;11.30;;;2.55;;
47513;SDS011;33951;51.988;5.910;2023-03-14T13:05:40;15.27;;;2.25;;
47513;SDS011;33951;51.988;5.910;2023-03-14T13:08:36;8.45;;;2.50;;
47513;SDS011;33951;51.988;5.910;2023-03-14T13:11:25;12.70;;;2.65;;
47513;SDS011;33951;51.988;5.910;2023-03-14T13:13:59;12.80;;;2.75;;
47513;SDS011;33951;51.988;5.910;2023-03-14T13:16:25;10.40;;;2.70;;
47513;SDS011;33951;51.988;5.910;2023-03-14T13:18:59;12.85;;;2.55;;
47513;SDS011;33951;51.988;5.910;2023-03-14T13:21:29;16.20;;;3.10;;
47513;SDS011;33951;51.988;5.910;2023-03-14T13:24:04;13.73;;;3.33;;
47513;SDS011;33951;51.988;5.910;2023-03-14T13:26:34;12.90;;;2.53;;
47513;SDS011;33951;51.988;5.910;2023-03-14T13:31:47;9.30;;;2.30;;
47513;SDS011;33951;51.988;5.910;2023-03-14T13:34:14;8.10;;;2.22;;
47513;SDS011;33951;51.988;5.910;2023-03-14T13:36:39;14.05;;;3.28;;
47513;SDS011;33951;51.988;5.910;2023-03-14T13:39:19;7.43;;;2.05;;
47513;SDS011;33951;51.988;5.910;2023-03-14T13:41:50;12.25;;;2.17;;
47513;SDS011;33951;51.988;5.910;2023-03-14T13:44:53;6.18;;;1.90;;
47513;SDS011;33951;51.988;5.910;2023-03-14T13:47:14;9.70;;;2.50;;
47513;SDS011;33951;51.988;5.910;2023-03-14T13:52:24;9.48;;;1.75;;
47513;SDS011;33951;51.988;5.910;2023-03-14T13:54:53;7.88;;;1.92;;
47513;SDS011;33951;51.988;5.910;2023-03-14T13:57:20;14.70;;;2.80;;
47513;SDS011;33951;51.988;5.910;2023-03-14T13:59:57;7.05;;;2.35;;
47513;SDS011;33951;51.988;5.910;2023-03-14T14:02:30;5.03;;;1.90;;
47513;SDS011;33951;51.988;5.910;2023-03-14T14:05:06;11.23;;;2.08;;
47513;SDS011;33951;51.988;5.910;2023-03-14T14:07:35;11.27;;;2.30;;
47513;SDS011;33951;51.988;5.910;2023-03-14T14:10:06;10.63;;;2.40;;
47513;SDS011;33951;51.988;5.910;2023-03-14T14:12:36;7.32;;;1.88;;
47513;SDS011;33951;51.988;5.910;2023-03-14T14:15:12;10.00;;;2.20;;
47513;SDS011;33951;51.988;5.910;2023-03-14T14:17:41;8.40;;;1.70;;
47513;SDS011;33951;51.988;5.910;2023-03-14T14:20:29;10.25;;;2.13;;
47513;SDS011;33951;51.988;5.910;2023-03-14T14:23:01;10.35;;;2.40;;
47513;SDS011;33951;51.988;5.910;2023-03-14T14:25:29;7.65;;;2.30;;
47513;SDS011;33951;51.988;5.910;2023-03-14T14:27:55;11.85;;;2.55;;
47513;SDS011;33951;51.988;5.910;2023-03-14T14:32:47;11.70;;;3.10;;
47513;SDS011;33951;51.988;5.910;2023-03-14T14:35:26;10.35;;;1.90;;
47513;SDS011;33951;51.988;5.910;2023-03-14T14:37:57;6.68;;;1.75;;
47513;SDS011;33951;51.988;5.910;2023-03-14T14:40:26;7.53;;;1.98;;
47513;SDS011;33951;51.988;5.910;2023-03-14T14:42:53;7.30;;;2.75;;
47513;SDS011;33951;51.988;5.910;2023-03-14T14:45:21;8.70;;;2.05;;
47513;SDS011;33951;51.988;5.910;2023-03-14T14:50:31;11.10;;;1.83;;
47513;SDS011;33951;51.988;5.910;2023-03-14T14:53:00;7.07;;;1.90;;
47513;SDS011;33951;51.988;5.910;2023-03-14T14:55:32;13.93;;;2.40;;
47513;SDS011;33951;51.988;5.910;2023-03-14T14:58:11;7.72;;;1.92;;
47513;SDS011;33951;51.988;5.910;2023-03-14T15:00:49;9.85;;;1.90;;
47513;SDS011;33951;51.988;5.910;2023-03-14T15:03:20;9.20;;;2.05;;
47513;SDS011;33951;51.988;5.910;2023-03-14T15:05:46;3.33;;;1.20;;
47513;SDS011;33951;51.988;5.910;2023-03-14T15:08:12;9.75;;;1.85;;
47513;SDS011;33951;51.988;5.910;2023-03-14T15:10:38;10.90;;;1.65;;
47513;SDS011;33951;51.988;5.910;2023-03-14T15:13:04;7.00;;;2.17;;
47513;SDS011;33951;51.988;5.910;2023-03-14T15:15:29;7.28;;;1.42;;
47513;SDS011;33951;51.988;5.910;2023-03-14T15:17:55;2.38;;;1.20;;
47513;SDS011;33951;51.988;5.910;2023-03-14T15:20:21;7.60;;;1.88;;
47513;SDS011;33951;51.988;5.910;2023-03-14T15:22:48;7.40;;;1.67;;
47513;SDS011;33951;51.988;5.910;2023-03-14T15:25:14;9.15;;;1.80;;
47513;SDS011;33951;51.988;5.910;2023-03-14T15:27:40;7.32;;;1.77;;
47513;SDS011;33951;51.988;5.910;2023-03-14T15:30:11;9.50;;;2.30;;
47513;SDS011;33951;51.988;5.910;2023-03-14T15:32:38;7.93;;;1.83;;
47513;SDS011;33951;51.988;5.910;2023-03-14T15:35:03;13.85;;;2.75;;
47513;SDS011;33951;51.988;5.910;2023-03-14T15:37:29;9.80;;;2.08;;
47513;SDS011;33951;51.988;5.910;2023-03-14T15:39:55;9.75;;;2.35;;
47513;SDS011;33951;51.988;5.910;2023-03-14T15:42:22;7.43;;;2.25;;
47513;SDS011;33951;51.988;5.910;2023-03-14T15:44:48;11.15;;;2.03;;
47513;SDS011;33951;51.988;5.910;2023-03-14T15:47:14;22.85;;;2.55;;
47513;SDS011;33951;51.988;5.910;2023-03-14T15:49:40;8.43;;;1.95;;
47513;SDS011;33951;51.988;5.910;2023-03-14T15:52:06;9.38;;;1.92;;
47513;SDS011;33951;51.988;5.910;2023-03-14T15:54:33;7.57;;;1.85;;
47513;SDS011;33951;51.988;5.910;2023-03-14T15:56:59;11.50;;;3.00;;
47513;SDS011;33951;51.988;5.910;2023-03-14T15:59:24;11.60;;;2.95;;
47513;SDS011;33951;51.988;5.910;2023-03-14T16:01:51;14.57;;;2.55;;
47513;SDS011;33951;51.988;5.910;2023-03-14T16:04:19;11.38;;;2.85;;
47513;SDS011;33951;51.988;5.910;2023-03-14T16:06:45;13.00;;;3.13;;
47513;SDS011;33951;51.988;5.910;2023-03-14T16:09:11;17.88;;;3.65;;
47513;SDS011;33951;51.988;5.910;2023-03-14T16:11:37;8.38;;;2.55;;
47513;SDS011;33951;51.988;5.910;2023-03-14T16:14:03;15.05;;;2.88;;
47513;SDS011;33951;51.988;5.910;2023-03-14T16:16:29;11.65;;;3.30;;
47513;SDS011;33951;51.988;5.910;2023-03-14T16:18:55;13.15;;;2.88;;
47513;SDS011;33951;51.988;5.910;2023-03-14T16:21:20;16.70;;;2.47;;
47513;SDS011;33951;51.988;5.910;2023-03-14T16:23:47;13.50;;;2.40;;
47513;SDS011;33951;51.988;5.910;2023-03-14T16:26:14;8.73;;;2.47;;
47513;SDS011;33951;51.988;5.910;2023-03-14T16:28:41;17.30;;;2.65;;
47513;SDS011;33951;51.988;5.910;2023-03-14T16:31:08;11.60;;;2.88;;
47513;SDS011;33951;51.988;5.910;2023-03-14T16:33:36;11.50;;;2.70;;
47513;SDS011;33951;51.988;5.910;2023-03-14T16:36:03;10.77;;;2.15;;
47513;SDS011;33951;51.988;5.910;2023-03-14T16:38:32;11.02;;;2.15;;
47513;SDS011;33951;51.988;5.910;2023-03-14T16:41:00;12.80;;;2.15;;
47513;SDS011;33951;51.988;5.910;2023-03-14T16:43:28;13.32;;;2.00;;
47513;SDS011;33951;51.988;5.910;2023-03-14T16:45:56;15.05;;;2.92;;
47513;SDS011;33951;51.988;5.910;2023-03-14T16:48:23;10.07;;;2.33;;
47513;SDS011;33951;51.988;5.910;2023-03-14T16:50:52;8.40;;;1.90;;
47513;SDS011;33951;51.988;5.910;2023-03-14T16:53:18;11.48;;;1.83;;
47513;SDS011;33951;51.988;5.910;2023-03-14T16:55:43;9.27;;;2.30;;
47513;SDS011;33951;51.988;5.910;2023-03-14T16:58:09;15.93;;;2.42;;
47513;SDS011;33951;51.988;5.910;2023-03-14T17:00:35;9.00;;;1.90;;
47513;SDS011;33951;51.988;5.910;2023-03-14T17:03:01;11.63;;;3.08;;
47513;SDS011;33951;51.988;5.910;2023-03-14T17:05:27;11.70;;;2.10;;
47513;SDS011;33951;51.988;5.910;2023-03-14T17:07:53;7.55;;;2.00;;
47513;SDS011;33951;51.988;5.910;2023-03-14T17:10:18;8.48;;;1.92;;
47513;SDS011;33951;51.988;5.910;2023-03-14T17:12:44;10.82;;;2.20;;
47513;SDS011;33951;51.988;5.910;2023-03-14T17:15:12;8.80;;;2.72;;
47513;SDS011;33951;51.988;5.910;2023-03-14T17:17:38;11.52;;;2.10;;
47513;SDS011;33951;51.988;5.910;2023-03-14T17:20:06;11.18;;;2.00;;
47513;SDS011;33951;51.988;5.910;2023-03-14T17:22:33;9.18;;;2.05;;
47513;SDS011;33951;51.988;5.910;2023-03-14T17:24:59;10.63;;;1.85;;
47513;SDS011;33951;51.988;5.910;2023-03-14T17:27:25;9.98;;;3.05;;
47513;SDS011;33951;51.988;5.910;2023-03-14T17:29:54;15.02;;;2.20;;
47513;SDS011;33951;51.988;5.910;2023-03-14T17:32:20;10.50;;;2.45;;
47513;SDS011;33951;51.988;5.910;2023-03-14T17:34:45;20.45;;;4.25;;
47513;SDS011;33951;51.988;5.910;2023-03-14T17:37:11;11.75;;;2.42;;
47513;SDS011;33951;51.988;5.910;2023-03-14T17:39:37;10.45;;;2.90;;
47513;SDS011;33951;51.988;5.910;2023-03-14T17:42:04;12.15;;;2.55;;
47513;SDS011;33951;51.988;5.910;2023-03-14T17:44:30;10.57;;;2.38;;
47513;SDS011;33951;51.988;5.910;2023-03-14T17:46:56;13.50;;;2.17;;
47513;SDS011;33951;51.988;5.910;2023-03-14T17:49:22;10.52;;;2.28;;
47513;SDS011;33951;51.988;5.910;2023-03-14T17:51:48;10.45;;;2.53;;
47513;SDS011;33951;51.988;5.910;2023-03-14T17:54:14;9.70;;;2.50;;
47513;SDS011;33951;51.988;5.910;2023-03-14T17:56:39;15.15;;;2.90;;
47513;SDS011;33951;51.988;5.910;2023-03-14T17:59:08;12.73;;;2.65;;
47513;SDS011;33951;51.988;5.910;2023-03-14T18:01:36;12.48;;;2.42;;
47513;SDS011;33951;51.988;5.910;2023-03-14T18:04:03;15.77;;;3.25;;
47513;SDS011;33951;51.988;5.910;2023-03-14T18:06:29;13.45;;;2.38;;
47513;SDS011;33951;51.988;5.910;2023-03-14T18:08:55;17.45;;;2.75;;
47513;SDS011;33951;51.988;5.910;2023-03-14T18:11:22;14.20;;;2.85;;
47513;SDS011;33951;51.988;5.910;2023-03-14T18:13:55;13.35;;;2.45;;
47513;SDS011;33951;51.988;5.910;2023-03-14T18:22:28;13.70;;;3.25;;
47513;SDS011;33951;51.988;5.910;2023-03-14T18:25:00;10.02;;;2.72;;
47513;SDS011;33951;51.988;5.910;2023-03-14T18:27:37;12.02;;;1.88;;
47513;SDS011;33951;51.988;5.910;2023-03-14T18:30:27;11.32;;;2.05;;
47513;SDS011;33951;51.988;5.910;2023-03-14T18:36:01;14.18;;;2.65;;
47513;SDS011;33951;51.988;5.910;2023-03-14T18:42:35;10.38;;;2.33;;
47513;SDS011;33951;51.988;5.910;2023-03-14T18:45:03;9.48;;;2.55;;
47513;SDS011;33951;51.988;5.910;2023-03-14T18:51:07;9.18;;;2.45;;
47513;SDS011;33951;51.988;5.910;2023-03-14T18:57:23;16.45;;;2.53;;
47513;SDS011;33951;51.988;5.910;2023-03-14T19:00:29;13.93;;;2.50;;
47513;SDS011;33951;51.988;5.910;2023-03-14T19:03:05;12.65;;;2.70;;
47513;SDS011;33951;51.988;5.910;2023-03-14T19:05:46;9.00;;;2.50;;
47513;SDS011;33951;51.988;5.910;2023-03-14T19:08:12;10.02;;;2.75;;
47513;SDS011;33951;51.988;5.910;2023-03-14T19:10:52;12.90;;;2.65;;
47513;SDS011;33951;51.988;5.910;2023-03-14T19:13:25;12.00;;;2.17;;
47513;SDS011;33951;51.988;5.910;2023-03-14T19:18:48;10.52;;;3.20;;
47513;SDS011;33951;51.988;5.910;2023-03-14T19:21:26;18.20;;;2.88;;
47513;SDS011;33951;51.988;5.910;2023-03-14T19:24:00;5.57;;;2.50;;
47513;SDS011;33951;51.988;5.910;2023-03-14T19:26:58;13.95;;;2.80;;
47513;SDS011;33951;51.988;5.910;2023-03-14T19:29:28;9.98;;;2.47;;
47513;SDS011;33951;51.988;5.910;2023-03-14T19:32:03;13.40;;;3.45;;
47513;SDS011;33951;51.988;5.910;2023-03-14T19:34:36;12.45;;;2.92;;
47513;SDS011;33951;51.988;5.910;2023-03-14T19:37:35;9.25;;;2.90;;
47513;SDS011;33951;51.988;5.910;2023-03-14T19:40:01;15.13;;;3.35;;
47513;SDS011;33951;51.988;5.910;2023-03-14T19:42:27;18.95;;;3.50;;
47513;SDS011;33951;51.988;5.910;2023-03-14T19:44:55;6.03;;;2.65;;
47513;SDS011;33951;51.988;5.910;2023-03-14T19:47:41;11.70;;;3.25;;
47513;SDS011;33951;51.988;5.910;2023-03-14T19:50:25;17.52;;;3.28;;
47513;SDS011;33951;51.988;5.910;2023-03-14T19:53:14;11.40;;;2.67;;
47513;SDS011;33951;51.988;5.910;2023-03-14T19:56:09;8.70;;;3.08;;
47513;SDS011;33951;51.988;5.910;2023-03-14T19:58:48;11.27;;;3.13;;
47513;SDS011;33951;51.988;5.910;2023-03-14T20:01:19;15.07;;;3.55;;
47513;SDS011;33951;51.988;5.910;2023-03-14T20:03:48;10.75;;;4.25;;
47513;SDS011;33951;51.988;5.910;2023-03-14T20:06:24;7.40;;;2.88;;
47513;SDS011;33951;51.988;5.910;2023-03-14T20:09:01;16.02;;;4.78;;
47513;SDS011;33951;51.988;5.910;2023-03-14T20:11:40;14.23;;;3.90;;
47513;SDS011;33951;51.988;5.910;2023-03-14T20:14:09;15.77;;;4.28;;
47513;SDS011;33951;51.988;5.910;2023-03-14T20:16:44;22.98;;;5.55;;
47513;SDS011;33951;51.988;5.910;2023-03-14T20:19:13;14.18;;;4.35;;
47513;SDS011;33951;51.988;5.910;2023-03-14T20:21:42;15.45;;;4.20;;
47513;SDS011;33951;51.988;5.910;2023-03-14T20:24:18;13.65;;;3.63;;
47513;SDS011;33951;51.988;5.910;2023-03-14T20:26:44;18.27;;;4.30;;
47513;SDS011;33951;51.988;5.910;2023-03-14T20:29:13;11.07;;;2.55;;
47513;SDS011;33951;51.988;5.910;2023-03-14T20:31:42;13.70;;;2.72;;
47513;SDS011;33951;51.988;5.910;2023-03-14T20:34:13;10.88;;;2.78;;
47513;SDS011;33951;51.988;5.910;2023-03-14T20:36:42;15.48;;;4.10;;
47513;SDS011;33951;51.988;5.910;2023-03-14T20:39:11;8.60;;;3.28;;
47513;SDS011;33951;51.988;5.910;2023-03-14T20:41:44;11.88;;;3.53;;
47513;SDS011;33951;51.988;5.910;2023-03-14T20:44:12;12.48;;;2.92;;
47513;SDS011;33951;51.988;5.910;2023-03-14T20:46:52;13.68;;;3.35;;
47513;SDS011;33951;51.988;5.910;2023-03-14T20:49:24;16.30;;;4.18;;
47513;SDS011;33951;51.988;5.910;2023-03-14T20:51:57;15.13;;;3.45;;
47513;SDS011;33951;51.988;5.910;2023-03-14T20:54:28;13.30;;;3.30;;
47513;SDS011;33951;51.988;5.910;2023-03-14T20:56:59;10.02;;;2.80;;
47513;SDS011;33951;51.988;5.910;2023-03-14T20:59:25;12.07;;;3.58;;
47513;SDS011;33951;51.988;5.910;2023-03-14T21:01:52;11.65;;;3.08;;
47513;SDS011;33951;51.988;5.910;2023-03-14T21:04:21;18.52;;;3.72;;
47513;SDS011;33951;51.988;5.910;2023-03-14T21:06:51;15.87;;;4.70;;
47513;SDS011;33951;51.988;5.910;2023-03-14T21:09:42;13.35;;;3.33;;
47513;SDS011;33951;51.988;5.910;2023-03-14T21:14:56;14.98;;;3.60;;
47513;SDS011;33951;51.988;5.910;2023-03-14T21:17:27;17.60;;;3.40;;
47513;SDS011;33951;51.988;5.910;2023-03-14T21:20:02;16.00;;;3.88;;
47513;SDS011;33951;51.988;5.910;2023-03-14T21:22:30;14.98;;;3.20;;